METAR Data
IDs: Format: Raw Decoded Include TAF

Data at: 0817 UTC 01 Aug 2021

LJLJ 010800Z 07005KT 360V110 9999 FEW050TCU SCT060 26/18 Q1006 NOSIG